sensor_id;sensor_type;location;lat;lon;timestamp;P1;durP1;ratioP1;P2;durP2;ratioP2
20290;SDS011;10304;51.074;13.754;2023-08-30T00:01:02;2.35;;;1.40;;
20290;SDS011;10304;51.074;13.754;2023-08-30T00:03:29;2.00;;;1.42;;
20290;SDS011;10304;51.074;13.754;2023-08-30T00:06:01;1.95;;;1.40;;
20290;SDS011;10304;51.074;13.754;2023-08-30T00:08:32;2.40;;;1.40;;
20290;SDS011;10304;51.074;13.754;2023-08-30T00:10:59;1.95;;;1.50;;
20290;SDS011;10304;51.074;13.754;2023-08-30T00:13:26;2.60;;;1.50;;
20290;SDS011;10304;51.074;13.754;2023-08-30T00:15:55;2.20;;;1.35;;
20290;SDS011;10304;51.074;13.754;2023-08-30T00:18:21;1.73;;;1.52;;
20290;SDS011;10304;51.074;13.754;2023-08-30T00:20:48;2.15;;;1.50;;
20290;SDS011;10304;51.074;13.754;2023-08-30T00:23:15;2.83;;;1.45;;
20290;SDS011;10304;51.074;13.754;2023-08-30T00:25:42;1.77;;;1.67;;
20290;SDS011;10304;51.074;13.754;2023-08-30T00:28:09;2.38;;;1.67;;
20290;SDS011;10304;51.074;13.754;2023-08-30T00:30:37;2.75;;;1.90;;
20290;SDS011;10304;51.074;13.754;2023-08-30T00:33:04;2.88;;;2.03;;
20290;SDS011;10304;51.074;13.754;2023-08-30T00:35:31;2.33;;;1.98;;
20290;SDS011;10304;51.074;13.754;2023-08-30T00:37:58;2.85;;;2.00;;
20290;SDS011;10304;51.074;13.754;2023-08-30T00:40:25;4.38;;;2.47;;
20290;SDS011;10304;51.074;13.754;2023-08-30T00:42:52;3.28;;;2.53;;
20290;SDS011;10304;51.074;13.754;2023-08-30T00:45:19;4.05;;;2.47;;
20290;SDS011;10304;51.074;13.754;2023-08-30T00:47:46;4.57;;;2.72;;
20290;SDS011;10304;51.074;13.754;2023-08-30T00:50:13;5.47;;;2.88;;
20290;SDS011;10304;51.074;13.754;2023-08-30T00:52:40;3.80;;;2.78;;
20290;SDS011;10304;51.074;13.754;2023-08-30T00:55:08;4.38;;;2.70;;
20290;SDS011;10304;51.074;13.754;2023-08-30T00:57:35;5.15;;;2.97;;
20290;SDS011;10304;51.074;13.754;2023-08-30T01:00:03;4.78;;;2.47;;
20290;SDS011;10304;51.074;13.754;2023-08-30T01:02:32;4.13;;;2.67;;
20290;SDS011;10304;51.074;13.754;2023-08-30T01:04:59;3.60;;;2.38;;
20290;SDS011;10304;51.074;13.754;2023-08-30T01:07:28;2.85;;;2.45;;
20290;SDS011;10304;51.074;13.754;2023-08-30T01:09:54;3.03;;;2.00;;
20290;SDS011;10304;51.074;13.754;2023-08-30T01:12:27;2.72;;;2.05;;
20290;SDS011;10304;51.074;13.754;2023-08-30T01:15:02;3.55;;;2.50;;
20290;SDS011;10304;51.074;13.754;2023-08-30T01:17:36;2.67;;;1.75;;
20290;SDS011;10304;51.074;13.754;2023-08-30T01:20:07;2.38;;;2.03;;
20290;SDS011;10304;51.074;13.754;2023-08-30T01:22:45;3.38;;;2.20;;
20290;SDS011;10304;51.074;13.754;2023-08-30T01:28:09;2.70;;;2.45;;
20290;SDS011;10304;51.074;13.754;2023-08-30T01:30:37;2.85;;;2.40;;
20290;SDS011;10304;51.074;13.754;2023-08-30T01:33:08;2.97;;;2.00;;
20290;SDS011;10304;51.074;13.754;2023-08-30T01:35:35;3.33;;;2.38;;
20290;SDS011;10304;51.074;13.754;2023-08-30T01:38:04;2.17;;;1.98;;
20290;SDS011;10304;51.074;13.754;2023-08-30T01:40:34;4.15;;;2.60;;
20290;SDS011;10304;51.074;13.754;2023-08-30T01:43:03;4.43;;;2.33;;
20290;SDS011;10304;51.074;13.754;2023-08-30T01:45:36;5.22;;;2.63;;
20290;SDS011;10304;51.074;13.754;2023-08-30T01:48:07;3.05;;;2.10;;
20290;SDS011;10304;51.074;13.754;2023-08-30T01:50:38;4.28;;;2.78;;
20290;SDS011;10304;51.074;13.754;2023-08-30T01:53:07;3.97;;;2.85;;
20290;SDS011;10304;51.074;13.754;2023-08-30T01:55:35;5.80;;;2.78;;
20290;SDS011;10304;51.074;13.754;2023-08-30T01:58:05;2.50;;;2.28;;
20290;SDS011;10304;51.074;13.754;2023-08-30T02:00:34;3.08;;;2.28;;
20290;SDS011;10304;51.074;13.754;2023-08-30T02:03:08;3.83;;;2.70;;
20290;SDS011;10304;51.074;13.754;2023-08-30T02:05:37;3.90;;;2.80;;
20290;SDS011;10304;51.074;13.754;2023-08-30T02:08:20;4.15;;;2.42;;
20290;SDS011;10304;51.074;13.754;2023-08-30T02:10:56;3.15;;;2.40;;
20290;SDS011;10304;51.074;13.754;2023-08-30T02:13:27;3.80;;;2.97;;
20290;SDS011;10304;51.074;13.754;2023-08-30T02:15:56;3.33;;;3.03;;
20290;SDS011;10304;51.074;13.754;2023-08-30T02:18:26;3.92;;;2.80;;
20290;SDS011;10304;51.074;13.754;2023-08-30T02:20:53;3.90;;;2.70;;
20290;SDS011;10304;51.074;13.754;2023-08-30T02:23:23;4.03;;;2.90;;
20290;SDS011;10304;51.074;13.754;2023-08-30T02:25:51;3.72;;;2.40;;
20290;SDS011;10304;51.074;13.754;2023-08-30T02:28:20;4.63;;;2.90;;
20290;SDS011;10304;51.074;13.754;2023-08-30T02:30:47;4.18;;;2.88;;
20290;SDS011;10304;51.074;13.754;2023-08-30T02:33:13;3.30;;;3.00;;
20290;SDS011;10304;51.074;13.754;2023-08-30T02:35:40;4.40;;;3.03;;
20290;SDS011;10304;51.074;13.754;2023-08-30T02:38:07;3.88;;;2.80;;
20290;SDS011;10304;51.074;13.754;2023-08-30T02:40:34;3.50;;;3.20;;
20290;SDS011;10304;51.074;13.754;2023-08-30T02:43:01;5.78;;;3.17;;
20290;SDS011;10304;51.074;13.754;2023-08-30T02:45:27;5.97;;;3.08;;
20290;SDS011;10304;51.074;13.754;2023-08-30T02:47:55;4.35;;;2.90;;
20290;SDS011;10304;51.074;13.754;2023-08-30T02:50:23;9.25;;;4.80;;
20290;SDS011;10304;51.074;13.754;2023-08-30T02:52:50;3.65;;;3.10;;
20290;SDS011;10304;51.074;13.754;2023-08-30T02:55:18;4.15;;;3.20;;
20290;SDS011;10304;51.074;13.754;2023-08-30T02:57:45;4.85;;;3.03;;
20290;SDS011;10304;51.074;13.754;2023-08-30T03:00:12;4.13;;;2.67;;
20290;SDS011;10304;51.074;13.754;2023-08-30T03:02:40;4.07;;;2.88;;
20290;SDS011;10304;51.074;13.754;2023-08-30T03:05:07;4.32;;;3.08;;
20290;SDS011;10304;51.074;13.754;2023-08-30T03:07:34;5.82;;;4.50;;
20290;SDS011;10304;51.074;13.754;2023-08-30T03:10:00;4.30;;;3.47;;
20290;SDS011;10304;51.074;13.754;2023-08-30T03:12:27;7.38;;;4.38;;
20290;SDS011;10304;51.074;13.754;2023-08-30T03:14:55;14.35;;;9.40;;
20290;SDS011;10304;51.074;13.754;2023-08-30T03:17:22;4.95;;;3.92;;
20290;SDS011;10304;51.074;13.754;2023-08-30T03:19:51;8.10;;;4.65;;
20290;SDS011;10304;51.074;13.754;2023-08-30T03:22:21;4.78;;;3.95;;
20290;SDS011;10304;51.074;13.754;2023-08-30T03:24:48;7.03;;;4.25;;
20290;SDS011;10304;51.074;13.754;2023-08-30T03:27:16;6.40;;;4.75;;
20290;SDS011;10304;51.074;13.754;2023-08-30T03:29:43;5.00;;;4.10;;
20290;SDS011;10304;51.074;13.754;2023-08-30T03:32:09;4.35;;;3.95;;
20290;SDS011;10304;51.074;13.754;2023-08-30T03:34:39;4.65;;;3.58;;
20290;SDS011;10304;51.074;13.754;2023-08-30T03:37:06;5.90;;;4.15;;
20290;SDS011;10304;51.074;13.754;2023-08-30T03:39:32;7.30;;;3.60;;
20290;SDS011;10304;51.074;13.754;2023-08-30T03:41:59;5.75;;;3.33;;
20290;SDS011;10304;51.074;13.754;2023-08-30T03:44:26;3.53;;;3.22;;
20290;SDS011;10304;51.074;13.754;2023-08-30T03:46:52;4.40;;;3.33;;
20290;SDS011;10304;51.074;13.754;2023-08-30T03:49:20;4.45;;;3.60;;
20290;SDS011;10304;51.074;13.754;2023-08-30T03:51:46;5.28;;;3.63;;
20290;SDS011;10304;51.074;13.754;2023-08-30T03:54:13;5.22;;;3.58;;
20290;SDS011;10304;51.074;13.754;2023-08-30T03:56:45;4.15;;;3.40;;
20290;SDS011;10304;51.074;13.754;2023-08-30T03:59:13;5.25;;;3.75;;
20290;SDS011;10304;51.074;13.754;2023-08-30T04:01:39;10.10;;;7.60;;
20290;SDS011;10304;51.074;13.754;2023-08-30T04:04:06;5.50;;;4.82;;
20290;SDS011;10304;51.074;13.754;2023-08-30T04:06:33;7.15;;;4.65;;
20290;SDS011;10304;51.074;13.754;2023-08-30T04:09:00;6.05;;;4.13;;
20290;SDS011;10304;51.074;13.754;2023-08-30T04:11:26;6.80;;;3.65;;
20290;SDS011;10304;51.074;13.754;2023-08-30T04:13:53;5.18;;;3.80;;
20290;SDS011;10304;51.074;13.754;2023-08-30T04:16:20;4.95;;;3.80;;
20290;SDS011;10304;51.074;13.754;2023-08-30T04:18:46;5.40;;;3.90;;
20290;SDS011;10304;51.074;13.754;2023-08-30T04:21:13;3.95;;;3.50;;
20290;SDS011;10304;51.074;13.754;2023-08-30T04:23:40;5.88;;;3.90;;
20290;SDS011;10304;51.074;13.754;2023-08-30T04:26:06;5.85;;;3.95;;
20290;SDS011;10304;51.074;13.754;2023-08-30T04:28:33;4.10;;;3.58;;
20290;SDS011;10304;51.074;13.754;2023-08-30T04:31:00;3.25;;;2.95;;
20290;SDS011;10304;51.074;13.754;2023-08-30T04:33:27;6.55;;;3.42;;
20290;SDS011;10304;51.074;13.754;2023-08-30T04:35:54;5.50;;;3.20;;
20290;SDS011;10304;51.074;13.754;2023-08-30T04:38:21;5.53;;;3.30;;
20290;SDS011;10304;51.074;13.754;2023-08-30T04:40:48;4.32;;;2.80;;
20290;SDS011;10304;51.074;13.754;2023-08-30T04:43:15;5.28;;;3.50;;
20290;SDS011;10304;51.074;13.754;2023-08-30T04:45:42;4.75;;;3.60;;
20290;SDS011;10304;51.074;13.754;2023-08-30T04:48:12;5.45;;;3.60;;
20290;SDS011;10304;51.074;13.754;2023-08-30T04:50:39;6.60;;;3.35;;
20290;SDS011;10304;51.074;13.754;2023-08-30T04:53:06;4.20;;;3.10;;
20290;SDS011;10304;51.074;13.754;2023-08-30T04:55:32;5.90;;;3.10;;
20290;SDS011;10304;51.074;13.754;2023-08-30T04:57:59;3.80;;;3.17;;
20290;SDS011;10304;51.074;13.754;2023-08-30T05:00:26;4.35;;;2.92;;
20290;SDS011;10304;51.074;13.754;2023-08-30T05:02:52;4.38;;;3.78;;
20290;SDS011;10304;51.074;13.754;2023-08-30T05:05:19;4.70;;;3.22;;
20290;SDS011;10304;51.074;13.754;2023-08-30T05:07:46;5.45;;;3.50;;
20290;SDS011;10304;51.074;13.754;2023-08-30T05:10:13;6.75;;;3.88;;
20290;SDS011;10304;51.074;13.754;2023-08-30T05:12:40;4.03;;;3.45;;
20290;SDS011;10304;51.074;13.754;2023-08-30T05:15:08;6.85;;;2.95;;
20290;SDS011;10304;51.074;13.754;2023-08-30T05:17:35;16.90;;;11.75;;
20290;SDS011;10304;51.074;13.754;2023-08-30T05:20:02;6.22;;;4.60;;
20290;SDS011;10304;51.074;13.754;2023-08-30T05:22:30;7.68;;;5.45;;
20290;SDS011;10304;51.074;13.754;2023-08-30T05:24:57;8.05;;;6.18;;
20290;SDS011;10304;51.074;13.754;2023-08-30T05:27:24;5.72;;;4.07;;
20290;SDS011;10304;51.074;13.754;2023-08-30T05:29:51;9.40;;;4.40;;
20290;SDS011;10304;51.074;13.754;2023-08-30T05:32:18;4.50;;;3.92;;
20290;SDS011;10304;51.074;13.754;2023-08-30T05:34:44;5.38;;;3.80;;
20290;SDS011;10304;51.074;13.754;2023-08-30T05:37:11;4.72;;;4.20;;
20290;SDS011;10304;51.074;13.754;2023-08-30T05:39:38;5.55;;;3.85;;
20290;SDS011;10304;51.074;13.754;2023-08-30T05:42:05;4.95;;;4.45;;
20290;SDS011;10304;51.074;13.754;2023-08-30T05:44:32;4.72;;;4.05;;
20290;SDS011;10304;51.074;13.754;2023-08-30T05:46:58;6.15;;;4.30;;
20290;SDS011;10304;51.074;13.754;2023-08-30T05:49:25;10.88;;;6.95;;
20290;SDS011;10304;51.074;13.754;2023-08-30T05:51:52;27.60;;;20.70;;
20290;SDS011;10304;51.074;13.754;2023-08-30T05:54:19;10.38;;;7.18;;
20290;SDS011;10304;51.074;13.754;2023-08-30T05:56:45;5.68;;;4.40;;
20290;SDS011;10304;51.074;13.754;2023-08-30T05:59:12;5.20;;;4.07;;
20290;SDS011;10304;51.074;13.754;2023-08-30T06:01:39;5.70;;;4.22;;
20290;SDS011;10304;51.074;13.754;2023-08-30T06:04:06;5.32;;;4.15;;
20290;SDS011;10304;51.074;13.754;2023-08-30T06:06:32;9.48;;;4.30;;
20290;SDS011;10304;51.074;13.754;2023-08-30T06:08:59;6.13;;;3.97;;
20290;SDS011;10304;51.074;13.754;2023-08-30T06:11:26;5.88;;;4.07;;
20290;SDS011;10304;51.074;13.754;2023-08-30T06:13:53;6.15;;;4.15;;
20290;SDS011;10304;51.074;13.754;2023-08-30T06:16:21;7.70;;;4.10;;
20290;SDS011;10304;51.074;13.754;2023-08-30T06:18:47;5.63;;;4.30;;
20290;SDS011;10304;51.074;13.754;2023-08-30T06:21:14;6.95;;;4.05;;
20290;SDS011;10304;51.074;13.754;2023-08-30T06:23:41;6.53;;;3.85;;
20290;SDS011;10304;51.074;13.754;2023-08-30T06:26:08;7.78;;;3.33;;
20290;SDS011;10304;51.074;13.754;2023-08-30T06:28:35;5.60;;;3.95;;
20290;SDS011;10304;51.074;13.754;2023-08-30T06:31:04;5.68;;;3.70;;
20290;SDS011;10304;51.074;13.754;2023-08-30T06:33:30;4.45;;;3.42;;
20290;SDS011;10304;51.074;13.754;2023-08-30T06:35:57;6.13;;;3.20;;
20290;SDS011;10304;51.074;13.754;2023-08-30T06:38:24;4.65;;;3.45;;
20290;SDS011;10304;51.074;13.754;2023-08-30T06:40:51;5.05;;;3.35;;
20290;SDS011;10304;51.074;13.754;2023-08-30T06:43:17;6.30;;;3.30;;
20290;SDS011;10304;51.074;13.754;2023-08-30T06:45:44;6.18;;;3.83;;
20290;SDS011;10304;51.074;13.754;2023-08-30T06:48:12;6.40;;;3.80;;
20290;SDS011;10304;51.074;13.754;2023-08-30T06:50:39;28.08;;;18.73;;
20290;SDS011;10304;51.074;13.754;2023-08-30T06:53:06;23.05;;;16.38;;
20290;SDS011;10304;51.074;13.754;2023-08-30T06:55:33;7.90;;;5.90;;
20290;SDS011;10304;51.074;13.754;2023-08-30T06:58:02;10.02;;;5.50;;
20290;SDS011;10304;51.074;13.754;2023-08-30T07:00:29;5.78;;;4.88;;
20290;SDS011;10304;51.074;13.754;2023-08-30T07:02:56;5.68;;;4.25;;
20290;SDS011;10304;51.074;13.754;2023-08-30T07:05:23;8.00;;;5.65;;
20290;SDS011;10304;51.074;13.754;2023-08-30T07:07:49;6.40;;;4.85;;
20290;SDS011;10304;51.074;13.754;2023-08-30T07:10:16;9.63;;;5.13;;
20290;SDS011;10304;51.074;13.754;2023-08-30T07:12:43;6.75;;;6.05;;
20290;SDS011;10304;51.074;13.754;2023-08-30T07:15:11;7.35;;;5.47;;
20290;SDS011;10304;51.074;13.754;2023-08-30T07:17:38;5.85;;;5.03;;
20290;SDS011;10304;51.074;13.754;2023-08-30T07:20:11;7.30;;;5.38;;
20290;SDS011;10304;51.074;13.754;2023-08-30T07:22:38;9.32;;;5.70;;
20290;SDS011;10304;51.074;13.754;2023-08-30T07:25:05;7.78;;;5.90;;
20290;SDS011;10304;51.074;13.754;2023-08-30T07:27:33;8.40;;;6.68;;
20290;SDS011;10304;51.074;13.754;2023-08-30T07:30:02;15.23;;;11.27;;
20290;SDS011;10304;51.074;13.754;2023-08-30T07:32:30;28.98;;;20.70;;
20290;SDS011;10304;51.074;13.754;2023-08-30T07:34:57;18.13;;;14.27;;
20290;SDS011;10304;51.074;13.754;2023-08-30T07:37:24;10.10;;;7.22;;
20290;SDS011;10304;51.074;13.754;2023-08-30T07:39:51;7.82;;;6.80;;
20290;SDS011;10304;51.074;13.754;2023-08-30T07:42:19;7.97;;;6.20;;
20290;SDS011;10304;51.074;13.754;2023-08-30T07:44:46;7.45;;;6.47;;
20290;SDS011;10304;51.074;13.754;2023-08-30T07:47:13;7.53;;;5.97;;
20290;SDS011;10304;51.074;13.754;2023-08-30T07:49:40;33.42;;;18.63;;
20290;SDS011;10304;51.074;13.754;2023-08-30T07:52:07;124.60;;;66.20;;
20290;SDS011;10304;51.074;13.754;2023-08-30T07:54:37;121.15;;;57.97;;
20290;SDS011;10304;51.074;13.754;2023-08-30T07:57:05;119.90;;;50.55;;
20290;SDS011;10304;51.074;13.754;2023-08-30T07:59:33;10.45;;;6.78;;
20290;SDS011;10304;51.074;13.754;2023-08-30T08:02:02;5.97;;;4.65;;
20290;SDS011;10304;51.074;13.754;2023-08-30T08:04:34;7.88;;;4.95;;
20290;SDS011;10304;51.074;13.754;2023-08-30T08:07:02;6.50;;;4.63;;
20290;SDS011;10304;51.074;13.754;2023-08-30T08:09:30;4.45;;;3.88;;
20290;SDS011;10304;51.074;13.754;2023-08-30T08:11:57;5.07;;;4.00;;
20290;SDS011;10304;51.074;13.754;2023-08-30T08:14:24;5.10;;;4.05;;
20290;SDS011;10304;51.074;13.754;2023-08-30T08:16:51;6.15;;;4.05;;
20290;SDS011;10304;51.074;13.754;2023-08-30T08:19:18;5.35;;;4.75;;
20290;SDS011;10304;51.074;13.754;2023-08-30T08:21:50;4.95;;;4.45;;
20290;SDS011;10304;51.074;13.754;2023-08-30T08:24:20;5.75;;;4.30;;
20290;SDS011;10304;51.074;13.754;2023-08-30T08:26:47;5.05;;;4.00;;
20290;SDS011;10304;51.074;13.754;2023-08-30T08:29:15;5.55;;;3.58;;
20290;SDS011;10304;51.074;13.754;2023-08-30T08:31:42;4.30;;;3.60;;
20290;SDS011;10304;51.074;13.754;2023-08-30T08:34:10;4.90;;;3.67;;
20290;SDS011;10304;51.074;13.754;2023-08-30T08:36:38;4.40;;;3.28;;
20290;SDS011;10304;51.074;13.754;2023-08-30T08:39:06;5.78;;;3.67;;
20290;SDS011;10304;51.074;13.754;2023-08-30T08:41:35;5.45;;;3.20;;
20290;SDS011;10304;51.074;13.754;2023-08-30T08:44:08;4.97;;;3.50;;
20290;SDS011;10304;51.074;13.754;2023-08-30T08:46:36;15.73;;;11.73;;
20290;SDS011;10304;51.074;13.754;2023-08-30T08:49:14;14.10;;;10.30;;
20290;SDS011;10304;51.074;13.754;2023-08-30T08:51:42;6.90;;;4.90;;
20290;SDS011;10304;51.074;13.754;2023-08-30T08:54:11;4.75;;;3.90;;
20290;SDS011;10304;51.074;13.754;2023-08-30T08:56:39;4.45;;;4.05;;
20290;SDS011;10304;51.074;13.754;2023-08-30T08:59:07;4.80;;;3.50;;
20290;SDS011;10304;51.074;13.754;2023-08-30T09:01:35;4.57;;;3.42;;
20290;SDS011;10304;51.074;13.754;2023-08-30T09:04:08;7.68;;;3.90;;
20290;SDS011;10304;51.074;13.754;2023-08-30T09:06:36;4.60;;;3.50;;
20290;SDS011;10304;51.074;13.754;2023-08-30T09:09:06;4.25;;;3.10;;
20290;SDS011;10304;51.074;13.754;2023-08-30T09:11:35;5.35;;;3.13;;
20290;SDS011;10304;51.074;13.754;2023-08-30T09:14:16;6.28;;;2.90;;
20290;SDS011;10304;51.074;13.754;2023-08-30T09:17:02;3.90;;;3.03;;
20290;SDS011;10304;51.074;13.754;2023-08-30T09:19:29;6.20;;;2.78;;
20290;SDS011;10304;51.074;13.754;2023-08-30T09:21:57;6.10;;;4.15;;
20290;SDS011;10304;51.074;13.754;2023-08-30T09:24:25;15.80;;;11.88;;
20290;SDS011;10304;51.074;13.754;2023-08-30T09:27:03;6.35;;;4.30;;
20290;SDS011;10304;51.074;13.754;2023-08-30T09:29:30;6.40;;;3.83;;
20290;SDS011;10304;51.074;13.754;2023-08-30T09:31:57;9.40;;;3.70;;
20290;SDS011;10304;51.074;13.754;2023-08-30T09:34:24;5.15;;;3.85;;
20290;SDS011;10304;51.074;13.754;2023-08-30T09:36:52;6.68;;;3.03;;
20290;SDS011;10304;51.074;13.754;2023-08-30T09:39:20;5.60;;;3.38;;
20290;SDS011;10304;51.074;13.754;2023-08-30T09:41:48;7.53;;;2.88;;
20290;SDS011;10304;51.074;13.754;2023-08-30T09:44:16;4.75;;;3.97;;
20290;SDS011;10304;51.074;13.754;2023-08-30T09:46:45;45.50;;;32.50;;
20290;SDS011;10304;51.074;13.754;2023-08-30T09:49:19;10.23;;;8.15;;
20290;SDS011;10304;51.074;13.754;2023-08-30T09:51:51;7.00;;;4.88;;
20290;SDS011;10304;51.074;13.754;2023-08-30T09:54:25;4.10;;;3.47;;
20290;SDS011;10304;51.074;13.754;2023-08-30T09:56:57;4.18;;;3.40;;
20290;SDS011;10304;51.074;13.754;2023-08-30T09:59:26;19.45;;;10.73;;
20290;SDS011;10304;51.074;13.754;2023-08-30T10:01:54;34.10;;;16.92;;
20290;SDS011;10304;51.074;13.754;2023-08-30T10:04:21;4.22;;;3.25;;
20290;SDS011;10304;51.074;13.754;2023-08-30T10:06:49;7.88;;;3.75;;
20290;SDS011;10304;51.074;13.754;2023-08-30T10:09:18;4.18;;;2.70;;
20290;SDS011;10304;51.074;13.754;2023-08-30T10:11:46;5.90;;;2.83;;
20290;SDS011;10304;51.074;13.754;2023-08-30T10:14:16;4.40;;;3.17;;
20290;SDS011;10304;51.074;13.754;2023-08-30T10:16:44;3.17;;;2.10;;
20290;SDS011;10304;51.074;13.754;2023-08-30T10:19:16;3.08;;;2.40;;
20290;SDS011;10304;51.074;13.754;2023-08-30T10:21:47;4.28;;;2.90;;
20290;SDS011;10304;51.074;13.754;2023-08-30T10:24:19;2.92;;;2.17;;
20290;SDS011;10304;51.074;13.754;2023-08-30T10:27:01;3.72;;;2.13;;
20290;SDS011;10304;51.074;13.754;2023-08-30T10:29:31;6.72;;;5.85;;
20290;SDS011;10304;51.074;13.754;2023-08-30T10:32:04;15.02;;;11.38;;
20290;SDS011;10304;51.074;13.754;2023-08-30T10:34:35;12.80;;;9.18;;
20290;SDS011;10304;51.074;13.754;2023-08-30T10:37:03;18.25;;;10.15;;
20290;SDS011;10304;51.074;13.754;2023-08-30T10:39:37;6.65;;;4.03;;
20290;SDS011;10304;51.074;13.754;2023-08-30T10:42:16;4.55;;;2.85;;
20290;SDS011;10304;51.074;13.754;2023-08-30T10:44:50;3.45;;;2.53;;
20290;SDS011;10304;51.074;13.754;2023-08-30T10:47:24;3.95;;;2.35;;
20290;SDS011;10304;51.074;13.754;2023-08-30T10:49:53;3.55;;;2.47;;
20290;SDS011;10304;51.074;13.754;2023-08-30T10:52:25;5.32;;;2.80;;
20290;SDS011;10304;51.074;13.754;2023-08-30T10:55:04;4.28;;;2.70;;
20290;SDS011;10304;51.074;13.754;2023-08-30T10:57:34;3.25;;;2.58;;
20290;SDS011;10304;51.074;13.754;2023-08-30T11:00:15;3.20;;;2.55;;
20290;SDS011;10304;51.074;13.754;2023-08-30T11:02:47;3.83;;;2.60;;
20290;SDS011;10304;51.074;13.754;2023-08-30T11:05:16;3.78;;;2.25;;
20290;SDS011;10304;51.074;13.754;2023-08-30T11:07:44;4.72;;;2.45;;
20290;SDS011;10304;51.074;13.754;2023-08-30T11:10:12;2.75;;;1.90;;
20290;SDS011;10304;51.074;13.754;2023-08-30T11:12:40;3.05;;;1.90;;
20290;SDS011;10304;51.074;13.754;2023-08-30T11:15:11;3.20;;;1.88;;
20290;SDS011;10304;51.074;13.754;2023-08-30T11:17:42;3.22;;;1.70;;
20290;SDS011;10304;51.074;13.754;2023-08-30T11:20:10;2.00;;;1.45;;
20290;SDS011;10304;51.074;13.754;2023-08-30T11:22:44;2.95;;;2.00;;
20290;SDS011;10304;51.074;13.754;2023-08-30T11:25:12;3.38;;;2.20;;
20290;SDS011;10304;51.074;13.754;2023-08-30T11:27:39;3.55;;;2.05;;
20290;SDS011;10304;51.074;13.754;2023-08-30T11:30:07;4.05;;;1.92;;
20290;SDS011;10304;51.074;13.754;2023-08-30T11:32:37;3.03;;;2.05;;
20290;SDS011;10304;51.074;13.754;2023-08-30T11:35:10;3.35;;;2.40;;
20290;SDS011;10304;51.074;13.754;2023-08-30T11:37:38;6.13;;;2.03;;
20290;SDS011;10304;51.074;13.754;2023-08-30T11:40:07;2.03;;;1.83;;
20290;SDS011;10304;51.074;13.754;2023-08-30T11:42:37;2.90;;;1.55;;
20290;SDS011;10304;51.074;13.754;2023-08-30T11:45:04;2.65;;;1.70;;
20290;SDS011;10304;51.074;13.754;2023-08-30T11:47:33;2.78;;;1.40;;
20290;SDS011;10304;51.074;13.754;2023-08-30T11:50:00;2.28;;;1.70;;
20290;SDS011;10304;51.074;13.754;2023-08-30T11:52:28;4.03;;;1.40;;
20290;SDS011;10304;51.074;13.754;2023-08-30T11:54:55;2.03;;;1.63;;
20290;SDS011;10304;51.074;13.754;2023-08-30T11:57:22;2.80;;;1.60;;
20290;SDS011;10304;51.074;13.754;2023-08-30T11:59:49;3.03;;;1.70;;
20290;SDS011;10304;51.074;13.754;2023-08-30T12:02:17;3.10;;;1.80;;
20290;SDS011;10304;51.074;13.754;2023-08-30T12:04:45;3.65;;;1.80;;
20290;SDS011;10304;51.074;13.754;2023-08-30T12:07:23;6.72;;;1.90;;
20290;SDS011;10304;51.074;13.754;2023-08-30T12:09:52;2.38;;;1.60;;
20290;SDS011;10304;51.074;13.754;2023-08-30T12:12:30;3.17;;;1.90;;
20290;SDS011;10304;51.074;13.754;2023-08-30T12:14:57;1.70;;;1.60;;
20290;SDS011;10304;51.074;13.754;2023-08-30T12:17:24;2.00;;;1.90;;
20290;SDS011;10304;51.074;13.754;2023-08-30T12:19:55;3.13;;;1.60;;
20290;SDS011;10304;51.074;13.754;2023-08-30T12:22:23;4.28;;;2.05;;
20290;SDS011;10304;51.074;13.754;2023-08-30T12:24:50;2.60;;;1.95;;
20290;SDS011;10304;51.074;13.754;2023-08-30T12:27:17;1.75;;;1.65;;
20290;SDS011;10304;51.074;13.754;2023-08-30T12:29:44;3.53;;;1.83;;
20290;SDS011;10304;51.074;13.754;2023-08-30T12:32:10;1.88;;;1.67;;
20290;SDS011;10304;51.074;13.754;2023-08-30T12:34:37;1.50;;;1.40;;
20290;SDS011;10304;51.074;13.754;2023-08-30T12:37:05;2.10;;;1.40;;
20290;SDS011;10304;51.074;13.754;2023-08-30T12:39:32;2.25;;;1.52;;
20290;SDS011;10304;51.074;13.754;2023-08-30T12:41:59;5.25;;;1.70;;
20290;SDS011;10304;51.074;13.754;2023-08-30T12:44:26;2.25;;;1.65;;
20290;SDS011;10304;51.074;13.754;2023-08-30T12:46:53;3.42;;;1.73;;
20290;SDS011;10304;51.074;13.754;2023-08-30T12:49:20;2.63;;;1.60;;
20290;SDS011;10304;51.074;13.754;2023-08-30T12:51:47;2.50;;;1.80;;
20290;SDS011;10304;51.074;13.754;2023-08-30T12:54:14;3.13;;;1.80;;
20290;SDS011;10304;51.074;13.754;2023-08-30T12:56:41;2.97;;;1.70;;
20290;SDS011;10304;51.074;13.754;2023-08-30T12:59:08;3.47;;;1.73;;
20290;SDS011;10304;51.074;13.754;2023-08-30T13:01:35;3.17;;;1.50;;
20290;SDS011;10304;51.074;13.754;2023-08-30T13:04:06;2.70;;;1.55;;
20290;SDS011;10304;51.074;13.754;2023-08-30T13:06:33;3.47;;;1.75;;
20290;SDS011;10304;51.074;13.754;2023-08-30T13:09:00;3.15;;;1.70;;
20290;SDS011;10304;51.074;13.754;2023-08-30T13:11:27;3.40;;;1.73;;
20290;SDS011;10304;51.074;13.754;2023-08-30T13:13:54;2.90;;;1.75;;
20290;SDS011;10304;51.074;13.754;2023-08-30T13:16:25;2.67;;;1.73;;
20290;SDS011;10304;51.074;13.754;2023-08-30T13:18:52;3.50;;;1.85;;
20290;SDS011;10304;51.074;13.754;2023-08-30T13:21:19;2.40;;;1.90;;
20290;SDS011;10304;51.074;13.754;2023-08-30T13:23:52;1.75;;;1.40;;
20290;SDS011;10304;51.074;13.754;2023-08-30T13:26:19;2.55;;;1.50;;
20290;SDS011;10304;51.074;13.754;2023-08-30T13:28:46;2.97;;;1.40;;
20290;SDS011;10304;51.074;13.754;2023-08-30T13:31:13;1.50;;;1.40;;
20290;SDS011;10304;51.074;13.754;2023-08-30T13:33:40;3.47;;;2.10;;
20290;SDS011;10304;51.074;13.754;2023-08-30T13:36:07;1.83;;;1.60;;
20290;SDS011;10304;51.074;13.754;2023-08-30T13:38:33;2.08;;;1.80;;
20290;SDS011;10304;51.074;13.754;2023-08-30T13:41:00;2.55;;;1.60;;
20290;SDS011;10304;51.074;13.754;2023-08-30T13:43:28;2.20;;;1.55;;
20290;SDS011;10304;51.074;13.754;2023-08-30T13:45:58;1.73;;;1.50;;
20290;SDS011;10304;51.074;13.754;2023-08-30T13:48:26;1.98;;;1.52;;
20290;SDS011;10304;51.074;13.754;2023-08-30T13:50:52;2.10;;;1.70;;
20290;SDS011;10304;51.074;13.754;2023-08-30T13:53:19;2.42;;;1.80;;
20290;SDS011;10304;51.074;13.754;2023-08-30T13:55:46;3.05;;;1.85;;
20290;SDS011;10304;51.074;13.754;2023-08-30T13:58:16;3.08;;;2.25;;
20290;SDS011;10304;51.074;13.754;2023-08-30T14:00:46;2.67;;;1.67;;
20290;SDS011;10304;51.074;13.754;2023-08-30T14:03:13;2.80;;;1.88;;
20290;SDS011;10304;51.074;13.754;2023-08-30T14:05:41;2.72;;;2.03;;
20290;SDS011;10304;51.074;13.754;2023-08-30T14:08:08;2.13;;;1.90;;
20290;SDS011;10304;51.074;13.754;2023-08-30T14:10:35;2.40;;;2.05;;
20290;SDS011;10304;51.074;13.754;2023-08-30T14:13:03;1.90;;;1.80;;
20290;SDS011;10304;51.074;13.754;2023-08-30T14:15:30;2.00;;;1.88;;
20290;SDS011;10304;51.074;13.754;2023-08-30T14:17:57;3.00;;;1.95;;
20290;SDS011;10304;51.074;13.754;2023-08-30T14:20:24;2.45;;;2.25;;
20290;SDS011;10304;51.074;13.754;2023-08-30T14:22:51;2.00;;;1.85;;
20290;SDS011;10304;51.074;13.754;2023-08-30T14:25:18;2.30;;;2.10;;
20290;SDS011;10304;51.074;13.754;2023-08-30T14:27:44;2.60;;;2.40;;
20290;SDS011;10304;51.074;13.754;2023-08-30T14:30:11;2.50;;;2.30;;
20290;SDS011;10304;51.074;13.754;2023-08-30T14:32:39;4.00;;;2.47;;
20290;SDS011;10304;51.074;13.754;2023-08-30T14:35:06;3.97;;;2.17;;
20290;SDS011;10304;51.074;13.754;2023-08-30T14:37:33;2.47;;;2.10;;
20290;SDS011;10304;51.074;13.754;2023-08-30T14:40:06;3.05;;;2.22;;
20290;SDS011;10304;51.074;13.754;2023-08-30T14:42:34;4.07;;;2.17;;